Idlewild, Michigan
Current Conditions -  °F | °C
As of 5:15 AM on Sunday 26 Oct 2014 (Local Time) from KRQB Reporting Station
Clear Clear  
Wind Chill: 41°   Ceiling: Unl
Heat Index: 43°   Visibility: 10mi
Dew Point: 34°   Wind: 5mph
Humidity: 69%   Direction: 280°W
Pressure: 29.89"   Gusts: NA
Location:  43.89°N, 85.8°W
Report Text: KRQB 260915Z AUTO 28004KT 10SM CLR 06/01 A2989 RMK AO2 T00630010
Loading
Personal Weather Stations






























Interactive Weather Map
Tropical Storm Tracking
New forecast layout! Learn more

10-Day Weather Forecast

Advertisements
Track Severe Weather on mobile